createdAt,value
2019-03-16T00:02:18.425Z,13.20
2019-03-16T00:04:49.970Z,13.20
2019-03-16T00:07:32.567Z,13.20
2019-03-16T00:09:53.956Z,13.10
2019-03-16T00:12:24.600Z,13.00
2019-03-16T00:14:55.133Z,12.80
2019-03-16T00:17:25.889Z,12.70
2019-03-16T00:19:57.708Z,12.60
2019-03-16T00:22:28.396Z,12.50
2019-03-16T00:24:58.945Z,12.40
2019-03-16T00:27:29.691Z,12.40
2019-03-16T00:30:01.466Z,12.30
2019-03-16T00:32:32.325Z,12.30
2019-03-16T00:35:03.979Z,12.40
2019-03-16T00:37:34.648Z,12.40
2019-03-16T00:40:08.633Z,12.40
2019-03-16T00:42:39.302Z,12.40
2019-03-16T00:45:11.459Z,12.40
2019-03-16T00:47:42.193Z,12.20
2019-03-16T00:50:14.699Z,12.00
2019-03-16T00:52:45.525Z,11.90
2019-03-16T00:55:16.159Z,11.90
2019-03-16T00:57:47.003Z,12.00
2019-03-16T01:00:18.052Z,12.00
2019-03-16T01:02:48.917Z,12.00
2019-03-16T01:05:20.366Z,12.10
2019-03-16T01:07:51.111Z,11.90
2019-03-16T01:10:21.773Z,11.80
2019-03-16T01:12:52.560Z,11.60
2019-03-16T01:15:23.091Z,11.60
2019-03-16T01:17:53.834Z,11.60
2019-03-16T01:20:23.931Z,11.60
2019-03-16T01:22:54.707Z,11.70
2019-03-16T01:25:25.344Z,11.70
2019-03-16T01:27:55.513Z,11.70
2019-03-16T01:30:26.144Z,11.80
2019-03-16T01:32:56.227Z,11.80
2019-03-16T01:35:26.768Z,11.70
2019-03-16T01:37:57.410Z,11.50
2019-03-16T01:40:27.949Z,11.40
2019-03-16T01:42:58.583Z,11.30
2019-03-16T01:45:29.247Z,11.30
2019-03-16T01:47:59.898Z,11.20
2019-03-16T01:50:29.949Z,11.20
2019-03-16T01:53:00.080Z,11.20
2019-03-16T01:55:30.063Z,11.30
2019-03-16T01:58:00.849Z,11.30
2019-03-16T02:00:31.492Z,11.40
2019-03-16T02:03:02.253Z,11.40
2019-03-16T02:05:33.855Z,11.40
2019-03-16T02:08:03.934Z,11.40
2019-03-16T02:10:34.499Z,11.30
2019-03-16T02:13:05.333Z,11.30
2019-03-16T02:15:35.882Z,11.30
2019-03-16T02:18:06.649Z,11.30
2019-03-16T02:20:37.309Z,11.30
2019-03-16T02:23:07.566Z,11.20
2019-03-16T02:25:38.300Z,11.10
2019-03-16T02:28:08.934Z,11.20
2019-03-16T02:30:38.912Z,11.10
2019-03-16T02:33:13.363Z,11.20
2019-03-16T02:35:41.836Z,11.20
2019-03-16T02:38:12.927Z,11.20
2019-03-16T02:40:43.562Z,11.20
2019-03-16T02:43:14.333Z,11.20
2019-03-16T02:45:45.079Z,11.30
2019-03-16T02:48:17.120Z,11.20
2019-03-16T02:50:47.176Z,11.20
2019-03-16T02:53:17.892Z,11.20
2019-03-16T02:55:48.643Z,10.90
2019-03-16T02:58:20.395Z,10.90
2019-03-16T03:00:51.045Z,10.90
2019-03-16T03:03:29.114Z,10.90
2019-03-16T03:05:53.754Z,10.90
2019-03-16T03:08:25.448Z,10.80
2019-03-16T03:10:56.106Z,10.80
2019-03-16T03:13:26.885Z,10.70
2019-03-16T03:15:57.547Z,10.70
2019-03-16T03:18:29.315Z,10.70
2019-03-16T03:20:59.961Z,10.70
2019-03-16T03:23:30.757Z,10.70
2019-03-16T03:26:01.314Z,10.70
2019-03-16T03:28:35.249Z,10.70
2019-03-16T03:31:05.425Z,10.80
2019-03-16T03:33:57.246Z,10.80
2019-03-16T03:36:08.368Z,10.70
2019-03-16T03:38:40.182Z,10.70
2019-03-16T03:41:10.844Z,10.70
2019-03-16T03:43:41.613Z,10.70
2019-03-16T03:46:12.401Z,10.60
2019-03-16T03:48:44.163Z,10.50
2019-03-16T03:51:14.365Z,10.50
2019-03-16T03:53:45.186Z,10.50
2019-03-16T03:56:15.732Z,10.60
2019-03-16T03:58:47.378Z,10.60
2019-03-16T04:01:17.462Z,10.60
2019-03-16T04:03:47.753Z,10.60
2019-03-16T04:06:18.516Z,10.70
2019-03-16T04:08:49.701Z,10.50
2019-03-16T04:11:19.765Z,10.50
2019-03-16T04:13:50.492Z,10.50
2019-03-16T04:16:22.145Z,10.40
2019-03-16T04:18:54.375Z,10.40
2019-03-16T04:21:25.033Z,10.40
2019-03-16T04:23:55.745Z,10.40
2019-03-16T04:26:25.725Z,10.40
2019-03-16T04:28:56.893Z,10.40
2019-03-16T04:31:26.868Z,10.40
2019-03-16T04:33:57.618Z,10.30
2019-03-16T04:36:32.664Z,10.30
2019-03-16T04:39:07.400Z,10.30
2019-03-16T04:41:38.072Z,10.30
2019-03-16T04:44:08.742Z,10.20
2019-03-16T04:46:40.467Z,10.20
2019-03-16T04:49:10.780Z,10.20
2019-03-16T04:51:41.338Z,10.10
2019-03-16T04:54:12.155Z,10.10
2019-03-16T04:56:42.795Z,10.00
2019-03-16T04:59:13.519Z,10.00
2019-03-16T05:01:44.177Z,10.00
2019-03-16T05:04:14.342Z,9.90
2019-03-16T05:06:45.219Z,9.90
2019-03-16T05:09:16.003Z,9.90
2019-03-16T05:11:46.544Z,9.80
2019-03-16T05:14:16.611Z,9.80
2019-03-16T05:16:47.250Z,9.70
2019-03-16T05:19:18.390Z,9.70
2019-03-16T05:21:49.008Z,9.70
2019-03-16T05:24:19.730Z,9.60
2019-03-16T05:26:50.357Z,9.70
2019-03-16T05:29:20.516Z,9.70
2019-03-16T05:31:51.675Z,9.70
2019-03-16T05:34:22.376Z,9.70
2019-03-16T05:36:55.917Z,9.70
2019-03-16T05:39:26.728Z,9.80
2019-03-16T05:41:56.800Z,9.80
2019-03-16T05:44:27.575Z,9.90
2019-03-16T05:46:58.408Z,10.00
2019-03-16T05:49:30.173Z,10.00
2019-03-16T05:52:00.822Z,10.00
2019-03-16T05:54:31.651Z,10.20
2019-03-16T05:57:01.688Z,10.40
2019-03-16T05:59:33.434Z,10.60
2019-03-16T06:02:03.972Z,10.80
2019-03-16T06:04:34.629Z,10.80
2019-03-16T06:07:05.611Z,10.90
2019-03-16T06:09:37.825Z,11.00
2019-03-16T06:12:07.904Z,11.10
2019-03-16T06:14:38.638Z,11.30
2019-03-16T06:17:09.175Z,11.40
2019-03-16T06:19:40.873Z,11.60
2019-03-16T06:22:10.834Z,11.90
2019-03-16T06:24:41.539Z,12.10
2019-03-16T06:27:12.214Z,12.40
2019-03-16T06:29:43.990Z,12.80
2019-03-16T06:32:14.541Z,13.20
2019-03-16T06:34:45.290Z,13.90
2019-03-16T06:37:15.930Z,14.40
2019-03-16T06:39:47.646Z,14.80
2019-03-16T06:42:18.189Z,15.30
2019-03-16T06:44:48.840Z,15.40
2019-03-16T06:47:19.385Z,15.40
2019-03-16T06:49:51.083Z,15.70
2019-03-16T06:52:21.782Z,16.10
2019-03-16T06:54:52.738Z,16.40
2019-03-16T06:57:23.359Z,16.60
2019-03-16T06:59:55.168Z,17.20
2019-03-16T07:02:25.724Z,18.10
2019-03-16T07:04:56.486Z,19.00
2019-03-16T07:07:28.072Z,19.20
2019-03-16T07:10:00.863Z,19.40
2019-03-16T07:12:34.537Z,19.60
2019-03-16T07:15:04.114Z,20.00
2019-03-16T07:17:34.737Z,21.00
2019-03-16T07:20:08.651Z,22.00
2019-03-16T07:22:39.331Z,22.90
2019-03-16T07:25:10.355Z,23.60
2019-03-16T07:27:41.101Z,24.10
2019-03-16T07:30:15.068Z,24.70
2019-03-16T07:32:45.686Z,25.30
2019-03-16T07:35:16.418Z,25.50
2019-03-16T07:37:47.078Z,26.50
2019-03-16T07:40:17.837Z,27.10
2019-03-16T07:42:48.414Z,27.00
2019-03-16T07:45:19.218Z,27.30
2019-03-16T07:47:49.764Z,28.00
2019-03-16T07:50:20.436Z,28.50
2019-03-16T07:52:50.675Z,28.60
2019-03-16T07:55:21.113Z,28.90
2019-03-16T07:57:51.789Z,29.40
2019-03-16T08:00:22.222Z,29.60
2019-03-16T08:02:52.582Z,30.20
2019-03-16T08:05:23.042Z,30.80
2019-03-16T08:07:54.245Z,30.60
2019-03-16T08:10:25.002Z,31.00
2019-03-16T08:12:55.330Z,31.40
2019-03-16T08:15:28.082Z,30.90
2019-03-16T08:17:57.764Z,31.30
2019-03-16T08:20:31.272Z,31.20
2019-03-16T08:23:00.068Z,31.30
2019-03-16T08:25:30.565Z,31.70
2019-03-16T08:28:00.915Z,31.00
2019-03-16T08:30:31.265Z,30.50
2019-03-16T08:33:01.624Z,30.10
2019-03-16T08:35:32.144Z,29.70
2019-03-16T08:38:02.421Z,29.50
2019-03-16T08:40:32.858Z,29.00
2019-03-16T08:43:03.401Z,28.20
2019-03-16T08:45:33.960Z,28.30
2019-03-16T08:48:04.703Z,28.00
2019-03-16T08:50:35.158Z,28.40
2019-03-16T08:53:05.495Z,28.30
2019-03-16T08:55:36.206Z,28.00
2019-03-16T08:58:06.843Z,28.50
2019-03-16T09:00:37.535Z,29.00
2019-03-16T09:03:07.863Z,28.90
2019-03-16T09:05:38.623Z,28.80
2019-03-16T09:08:11.239Z,28.80
2019-03-16T09:10:41.977Z,29.60
2019-03-16T09:13:13.302Z,29.70
2019-03-16T09:15:43.643Z,30.10
2019-03-16T09:18:14.997Z,30.00
2019-03-16T09:20:45.744Z,29.60
2019-03-16T09:23:15.986Z,30.00
2019-03-16T09:25:46.805Z,30.20
2019-03-16T09:28:18.887Z,30.30
2019-03-16T09:30:49.256Z,30.80
2019-03-16T09:33:19.700Z,30.70
2019-03-16T09:35:50.159Z,30.70
2019-03-16T09:38:20.895Z,30.50
2019-03-16T09:40:51.683Z,30.40
2019-03-16T09:43:22.253Z,29.80
2019-03-16T09:45:52.937Z,29.30
2019-03-16T09:48:24.755Z,29.60
2019-03-16T09:50:55.134Z,29.80
2019-03-16T09:53:25.409Z,30.10
2019-03-16T09:55:55.969Z,30.30
2019-03-16T09:58:31.523Z,30.40
2019-03-16T10:00:59.941Z,30.30
2019-03-16T10:03:30.505Z,29.70
2019-03-16T10:06:01.277Z,28.90
2019-03-16T10:08:33.991Z,27.90
2019-03-16T10:11:04.721Z,26.80
2019-03-16T10:13:35.348Z,26.00
2019-03-16T10:16:06.014Z,25.30
2019-03-16T10:18:37.680Z,25.10
2019-03-16T10:21:08.421Z,24.50
2019-03-16T10:23:39.374Z,23.80
2019-03-16T10:26:10.116Z,23.40
2019-03-16T10:28:43.895Z,23.10
2019-03-16T10:31:14.117Z,22.80
2019-03-16T10:33:45.760Z,22.80
2019-03-16T10:36:16.501Z,22.90
2019-03-16T10:38:49.208Z,22.80
2019-03-16T10:41:19.958Z,22.60
2019-03-16T10:43:50.509Z,22.60
2019-03-16T10:46:21.276Z,22.50
2019-03-16T10:48:53.039Z,22.50
2019-03-16T10:51:23.938Z,22.40
2019-03-16T10:53:57.587Z,22.40
2019-03-16T10:56:28.502Z,22.60
2019-03-16T10:59:00.107Z,22.40
2019-03-16T11:01:30.981Z,22.50
2019-03-16T11:04:01.612Z,22.50
2019-03-16T11:06:32.293Z,22.30
2019-03-16T11:09:06.981Z,22.20
2019-03-16T11:11:37.716Z,22.20
2019-03-16T11:14:08.480Z,22.10
2019-03-16T11:16:39.140Z,22.00
2019-03-16T11:19:10.885Z,22.00
2019-03-16T11:21:41.627Z,21.90
2019-03-16T11:24:12.292Z,21.90
2019-03-16T11:26:43.115Z,21.80
2019-03-16T11:29:14.935Z,21.70
2019-03-16T11:31:45.584Z,21.70
2019-03-16T11:34:16.239Z,21.70
2019-03-16T11:36:46.990Z,21.60
2019-03-16T11:39:18.831Z,21.30
2019-03-16T11:41:49.600Z,21.20
2019-03-16T11:44:20.323Z,21.20
2019-03-16T11:46:50.981Z,21.10
2019-03-16T11:49:22.690Z,21.10
2019-03-16T11:51:53.551Z,21.20
2019-03-16T11:54:24.211Z,21.20
2019-03-16T11:56:54.903Z,21.20
2019-03-16T11:59:25.649Z,21.10
2019-03-16T12:02:04.912Z,21.10
2019-03-16T12:04:28.496Z,21.10
2019-03-16T12:06:59.237Z,21.10
2019-03-16T12:09:30.759Z,21.10
2019-03-16T12:12:01.498Z,21.00
2019-03-16T12:14:32.141Z,21.00
2019-03-16T12:17:02.890Z,21.00
2019-03-16T12:19:33.462Z,20.80
2019-03-16T12:22:04.220Z,20.80
2019-03-16T12:24:34.860Z,20.70
2019-03-16T12:27:05.676Z,20.70
2019-03-16T12:29:36.344Z,20.70
2019-03-16T12:32:07.090Z,20.80
2019-03-16T12:34:37.881Z,20.80
2019-03-16T12:37:08.571Z,20.90
2019-03-16T12:39:39.314Z,20.90
2019-03-16T12:42:09.962Z,21.00
2019-03-16T12:44:40.604Z,21.10
2019-03-16T12:47:11.257Z,21.20
2019-03-16T12:49:41.878Z,21.20
2019-03-16T12:52:12.519Z,21.20
2019-03-16T12:54:43.076Z,21.20
2019-03-16T12:57:13.882Z,21.30
2019-03-16T12:59:47.066Z,21.30
2019-03-16T13:02:16.814Z,21.30
2019-03-16T13:04:47.459Z,21.30
2019-03-16T13:07:18.208Z,21.30
2019-03-16T13:09:49.858Z,21.30
2019-03-16T13:12:20.561Z,21.30
2019-03-16T13:14:51.087Z,21.30
2019-03-16T13:17:21.756Z,21.40
2019-03-16T13:19:52.601Z,21.50
